createdAt,value
2022-11-27T00:06:00.863Z,101596.40
2022-11-27T00:11:17.113Z,101591.40
2022-11-27T00:16:23.277Z,101586.60
2022-11-27T00:28:31.295Z,101581.20
2022-11-27T00:34:57.262Z,101586.80
2022-11-27T00:40:01.285Z,101583.60
2022-11-27T00:45:56.529Z,101579.40
2022-11-27T01:07:04.879Z,101562.60
2022-11-27T01:12:09.084Z,101560.40
2022-11-27T01:17:13.026Z,101562.40
2022-11-27T01:22:16.738Z,101564.20
2022-11-27T01:27:20.827Z,101562.60
2022-11-27T01:33:15.539Z,101557.40
2022-11-27T01:38:19.554Z,101563.80
2022-11-27T01:43:51.432Z,101561.20
2022-11-27T01:57:01.112Z,101559.40
2022-11-27T02:02:05.187Z,101564.00
2022-11-27T02:07:34.727Z,101565.20
2022-11-27T02:23:35.739Z,101571.00
2022-11-27T02:29:06.238Z,101572.40
2022-11-27T02:34:16.838Z,101575.40
2022-11-27T02:39:33.187Z,101579.20
2022-11-27T02:44:50.873Z,101581.80
2022-11-27T02:49:57.487Z,101591.80
2022-11-27T02:55:09.204Z,101592.80
2022-11-27T03:08:44.528Z,101584.40
2022-11-27T03:13:55.421Z,101579.20
2022-11-27T03:19:39.766Z,101583.40
2022-11-27T03:24:43.885Z,101591.80
2022-11-27T03:30:01.896Z,101578.60
2022-11-27T03:35:11.925Z,101578.60
2022-11-27T03:54:53.764Z,101586.00
2022-11-27T04:00:02.946Z,101586.80
2022-11-27T04:12:38.327Z,101591.00
2022-11-27T04:17:42.636Z,101589.80
2022-11-27T04:30:00.841Z,101580.80
2022-11-27T04:35:05.635Z,101580.60
2022-11-27T04:44:36.508Z,101584.80
2022-11-27T05:00:22.583Z,101582.00
2022-11-27T05:05:26.198Z,101576.60
2022-11-27T05:10:30.197Z,101574.20
2022-11-27T05:15:33.902Z,101565.40
2022-11-27T05:20:46.965Z,101560.60
2022-11-27T05:26:42.035Z,101556.80
2022-11-27T05:31:47.036Z,101559.40
2022-11-27T05:36:50.844Z,101555.60
2022-11-27T05:41:54.456Z,101557.00
2022-11-27T05:46:58.302Z,101557.60
2022-11-27T05:59:28.233Z,101567.00
2022-11-27T06:05:33.579Z,101561.60
2022-11-27T06:17:41.502Z,101556.20
2022-11-27T06:22:45.614Z,101549.60
2022-11-27T06:27:50.049Z,101549.60
2022-11-27T06:34:16.098Z,101557.20
2022-11-27T06:39:20.042Z,101555.40
2022-11-27T06:44:23.842Z,101554.20
2022-11-27T06:49:27.767Z,101554.80
2022-11-27T06:55:49.010Z,101548.20
2022-11-27T07:08:53.639Z,101550.00
2022-11-27T07:29:16.517Z,101543.40
2022-11-27T07:41:30.539Z,101548.40
2022-11-27T07:46:36.949Z,101553.60
2022-11-27T07:52:38.056Z,101544.80
2022-11-27T07:58:31.698Z,101547.20
2022-11-27T08:04:01.287Z,101553.80
2022-11-27T08:10:30.421Z,101546.80
2022-11-27T08:16:50.552Z,101558.20
2022-11-27T08:21:54.219Z,101556.80
2022-11-27T08:33:48.512Z,101567.80
2022-11-27T08:38:52.442Z,101578.40
2022-11-27T08:43:56.461Z,101575.80
2022-11-27T08:49:01.322Z,101582.00
2022-11-27T08:54:05.609Z,101586.60
2022-11-27T09:13:55.961Z,101581.00
2022-11-27T09:42:55.570Z,101588.80
2022-11-27T09:48:09.220Z,101581.60
2022-11-27T09:53:59.042Z,101581.20
2022-11-27T09:59:09.420Z,101578.80
2022-11-27T10:04:18.245Z,101580.40
2022-11-27T10:09:40.371Z,101580.60
2022-11-27T10:15:18.732Z,101577.20
2022-11-27T10:21:30.560Z,101577.00
2022-11-27T10:41:54.774Z,101567.60
2022-11-27T10:47:38.981Z,101568.20
2022-11-27T10:53:07.715Z,101571.20
2022-11-27T11:12:27.943Z,101549.60
2022-11-27T11:18:27.782Z,101556.00
2022-11-27T11:24:26.753Z,101557.40
2022-11-27T11:51:32.938Z,101549.60
2022-11-27T11:56:50.158Z,101546.40
2022-11-27T12:10:14.872Z,101536.60
2022-11-27T12:16:00.903Z,101534.20
2022-11-27T12:21:36.543Z,101536.40
2022-11-27T12:34:11.120Z,101526.40
2022-11-27T12:40:47.873Z,101524.80
2022-11-27T13:08:29.150Z,101525.40
2022-11-27T13:14:21.216Z,101523.20
2022-11-27T13:19:33.341Z,101520.40
2022-11-27T13:25:02.426Z,101521.00
2022-11-27T13:30:09.564Z,101522.40
2022-11-27T13:35:42.987Z,101523.00
2022-11-27T13:40:56.395Z,101520.20
2022-11-27T13:46:21.338Z,101525.80
2022-11-27T13:51:36.321Z,101516.80
2022-11-27T13:56:41.193Z,101510.20
2022-11-27T14:02:00.451Z,101508.80
2022-11-27T14:21:05.457Z,101496.40
2022-11-27T14:27:18.087Z,101494.80
2022-11-27T14:32:22.297Z,101495.00
2022-11-27T14:52:23.984Z,101501.60
2022-11-27T15:12:17.261Z,101504.80
2022-11-27T15:18:19.564Z,101506.20
2022-11-27T15:41:27.777Z,101507.60
2022-11-27T15:48:17.878Z,101509.00
2022-11-27T15:53:22.688Z,101509.00
2022-11-27T15:58:52.100Z,101505.80
2022-11-27T16:04:18.064Z,101501.80
2022-11-27T16:09:48.615Z,101506.00
2022-11-27T16:22:46.420Z,101500.40
2022-11-27T16:35:01.928Z,101497.80
2022-11-27T16:40:06.991Z,101501.40
2022-11-27T16:45:11.561Z,101501.60
2022-11-27T16:50:15.436Z,101502.20
2022-11-27T16:55:19.245Z,101496.20
2022-11-27T17:00:23.466Z,101496.20
2022-11-27T17:05:27.211Z,101496.00
2022-11-27T17:10:31.229Z,101494.00
2022-11-27T17:15:40.574Z,101487.00
2022-11-27T17:20:44.964Z,101487.80
2022-11-27T17:25:48.691Z,101480.00
2022-11-27T17:30:52.766Z,101474.00
2022-11-27T17:35:56.744Z,101476.00
2022-11-27T17:41:10.167Z,101477.40
2022-11-27T18:00:56.903Z,101465.20
2022-11-27T18:06:26.682Z,101461.00
2022-11-27T18:33:37.355Z,101461.00
2022-11-27T18:39:15.275Z,101463.40
2022-11-27T18:45:36.962Z,101451.20
2022-11-27T18:50:40.638Z,101444.80
2022-11-27T18:55:47.785Z,101440.60
2022-11-27T19:00:58.461Z,101437.40
2022-11-27T19:06:06.882Z,101439.40
2022-11-27T19:11:45.783Z,101437.20
2022-11-27T19:16:51.181Z,101431.40
2022-11-27T19:21:56.699Z,101431.00
2022-11-27T19:27:52.885Z,101438.00
2022-11-27T19:32:57.436Z,101429.00
2022-11-27T19:38:01.768Z,101423.40
2022-11-27T19:43:31.532Z,101421.20
2022-11-27T19:48:35.247Z,101415.60
2022-11-27T19:53:40.274Z,101418.80
2022-11-27T19:58:44.419Z,101413.60
2022-11-27T20:03:49.992Z,101413.80
2022-11-27T20:09:01.479Z,101421.40
2022-11-27T20:14:16.123Z,101419.80
2022-11-27T20:19:20.448Z,101417.60
2022-11-27T20:24:25.785Z,101423.80
2022-11-27T20:29:30.239Z,101424.80
2022-11-27T20:34:34.649Z,101425.00
2022-11-27T20:39:39.043Z,101429.00
2022-11-27T20:44:43.088Z,101437.60
2022-11-27T20:49:47.137Z,101440.20
2022-11-27T20:54:51.113Z,101438.60
2022-11-27T20:59:56.059Z,101442.40
2022-11-27T21:05:00.293Z,101438.20
2022-11-27T21:10:07.003Z,101430.20
2022-11-27T21:15:11.831Z,101417.80
2022-11-27T21:20:15.630Z,101416.80
2022-11-27T21:25:24.016Z,101410.20
2022-11-27T21:30:29.507Z,101410.60
2022-11-27T21:35:36.697Z,101404.20
2022-11-27T21:40:43.037Z,101406.60
2022-11-27T21:45:46.964Z,101410.40
2022-11-27T21:50:52.353Z,101406.20
2022-11-27T21:55:56.644Z,101398.40
2022-11-27T22:01:02.317Z,101395.20
2022-11-27T22:06:13.071Z,101394.80
2022-11-27T22:11:22.787Z,101396.80
2022-11-27T22:16:52.664Z,101387.80
2022-11-27T22:22:06.291Z,101394.00
2022-11-27T22:27:10.318Z,101391.00
2022-11-27T22:32:14.169Z,101399.00
2022-11-27T22:53:16.837Z,101408.40
2022-11-27T23:13:46.327Z,101401.40
2022-11-27T23:19:21.489Z,101398.40
2022-11-27T23:31:34.681Z,101400.80
2022-11-27T23:37:03.321Z,101398.60
2022-11-27T23:42:06.928Z,101396.00
2022-11-27T23:47:11.457Z,101391.60
2022-11-27T23:52:17.290Z,101399.40
2022-11-27T23:58:11.207Z,101389.60
